Time;durP1;ratioP1;P1;durP2;ratioP2;P2;SDS_P1;SDS_P2;PMS_P1;PMS_P2;Temp;Humidity;BMP_temperature;BMP_pressure;BME280_temperature;BME280_humidity;BME280_pressure;Samples;Min_cycle;Max_cycle;Signal;HPM_P1;HPM_P2
2023/03/02 00:00:14;;;;;;;19.25;11.50;;;3.40;99.90;;;;;;5036415;28;20115;-88
2023/03/02 00:02:39;;;;;;;25.48;12.93;;;3.30;99.90;;;;;;5036118;28;20026;-89
2023/03/02 00:05:08;;;;;;;21.08;13.70;;;3.30;99.90;;;;;;5035798;28;20021;-88
2023/03/02 00:07:35;;;;;;;20.67;13.63;;;3.30;99.90;;;;;;5035912;28;20040;-88
2023/03/02 00:10:01;;;;;;;22.92;15.00;;;3.30;99.90;;;;;;5036230;28;20040;-89
2023/03/02 00:12:27;;;;;;;22.02;14.63;;;3.30;99.90;;;;;;5035135;28;20029;-88
2023/03/02 00:14:53;;;;;;;37.05;16.42;;;3.30;99.90;;;;;;5035787;28;20132;-88
2023/03/02 00:17:26;;;;;;;27.63;16.58;;;3.30;99.90;;;;;;5035841;28;20060;-88
2023/03/02 00:20:09;;;;;;;27.75;17.73;;;3.20;99.90;;;;;;5035358;28;20029;-87
2023/03/02 00:22:40;;;;;;;27.17;17.55;;;3.20;99.90;;;;;;5035998;28;20104;-88
2023/03/02 00:25:06;;;;;;;32.65;19.55;;;3.20;99.90;;;;;;5035807;28;20026;-88
2023/03/02 00:27:32;;;;;;;31.40;19.20;;;3.20;99.90;;;;;;5035198;28;20128;-88
2023/03/02 00:29:57;;;;;;;32.15;18.70;;;3.20;99.90;;;;;;5035346;28;20113;-88
2023/03/02 00:32:23;;;;;;;33.60;20.58;;;3.10;99.90;;;;;;5035633;28;20028;-89
2023/03/02 00:34:49;;;;;;;36.35;20.00;;;3.20;99.90;;;;;;5035135;28;20025;-88
2023/03/02 00:37:15;;;;;;;32.83;20.02;;;3.30;99.90;;;;;;5035630;28;20036;-88
2023/03/02 00:39:40;;;;;;;38.33;21.10;;;3.30;99.90;;;;;;5034870;28;20025;-88
2023/03/02 00:42:06;;;;;;;34.40;21.90;;;3.20;99.90;;;;;;5035240;28;20140;-88
2023/03/02 00:44:32;;;;;;;36.25;22.05;;;3.30;99.90;;;;;;5035249;28;20029;-88
2023/03/02 00:46:57;;;;;;;36.30;22.58;;;3.40;99.90;;;;;;5034491;28;20385;-88
2023/03/02 00:49:23;;;;;;;41.83;24.52;;;3.40;99.90;;;;;;5034870;28;20075;-87
2023/03/02 00:51:48;;;;;;;36.60;23.77;;;3.40;99.90;;;;;;5035473;28;20036;-87
2023/03/02 00:54:14;;;;;;;41.22;23.63;;;3.30;99.90;;;;;;5035544;28;20029;-88
2023/03/02 00:56:40;;;;;;;41.15;24.95;;;3.20;99.90;;;;;;5034594;28;20033;-88
2023/03/02 00:59:09;;;;;;;42.42;25.08;;;3.20;99.90;;;;;;5034649;28;20473;-88
2023/03/02 01:01:36;;;;;;;40.97;25.33;;;3.10;99.90;;;;;;5034666;28;20032;-87
2023/03/02 01:04:02;;;;;;;40.03;25.15;;;3.10;99.90;;;;;;5034337;28;20280;-88
2023/03/02 01:06:27;;;;;;;44.00;25.70;;;3.10;99.90;;;;;;5034998;28;20049;-87
2023/03/02 01:08:53;;;;;;;47.00;27.05;;;3.10;99.90;;;;;;5034395;28;20033;-88
2023/03/02 01:11:21;;;;;;;46.22;27.73;;;3.10;99.90;;;;;;5034695;28;20056;-88
2023/03/02 01:13:47;;;;;;;46.00;26.17;;;3.10;99.90;;;;;;5034775;28;20033;-88
2023/03/02 01:16:13;;;;;;;40.42;25.17;;;3.10;99.90;;;;;;5034476;28;20025;-88
2023/03/02 01:18:39;;;;;;;45.70;26.60;;;3.00;99.90;;;;;;5034362;28;20022;-87
2023/03/02 01:21:09;;;;;;;44.88;28.10;;;3.00;99.90;;;;;;5034643;28;20558;-87
2023/03/02 01:23:35;;;;;;;51.20;28.48;;;3.00;99.90;;;;;;5034022;28;20024;-88
2023/03/02 01:26:00;;;;;;;44.40;27.33;;;2.90;99.90;;;;;;5034594;28;20037;-87
2023/03/02 01:28:26;;;;;;;49.78;29.98;;;2.90;99.90;;;;;;5034690;28;20460;-88
2023/03/02 01:30:53;;;;;;;47.20;28.35;;;2.90;99.90;;;;;;5033799;28;20029;-87
2023/03/02 01:33:18;;;;;;;50.53;29.05;;;2.90;99.90;;;;;;5034536;28;20026;-89
2023/03/02 01:35:45;;;;;;;49.05;28.70;;;2.90;99.90;;;;;;5034299;28;20025;-87
2023/03/02 01:38:11;;;;;;;52.92;30.25;;;2.90;99.90;;;;;;5034244;28;20032;-88
2023/03/02 01:40:36;;;;;;;53.75;30.65;;;3.00;99.90;;;;;;5034187;28;20041;-87
2023/03/02 01:43:03;;;;;;;52.25;29.55;;;3.00;99.90;;;;;;5033420;28;20087;-88
2023/03/02 01:45:52;;;;;;;51.38;29.73;;;3.00;99.90;;;;;;5033727;28;20029;-87
2023/03/02 01:48:24;;;;;;;51.13;30.02;;;2.90;99.90;;;;;;5034269;28;20114;-88
2023/03/02 01:50:51;;;;;;;52.33;29.90;;;2.90;99.90;;;;;;5033395;28;20021;-88
2023/03/02 01:53:19;;;;;;;54.80;30.50;;;2.90;99.90;;;;;;5033963;28;20030;-88
2023/03/02 01:55:45;;;;;;;54.28;30.02;;;2.90;99.90;;;;;;5033924;28;20026;-88
2023/03/02 01:58:14;;;;;;;56.47;31.27;;;2.90;99.90;;;;;;5033478;28;20029;-88
2023/03/02 02:00:40;;;;;;;54.63;30.10;;;2.90;99.90;;;;;;5033906;28;20056;-88
2023/03/02 02:03:13;;;;;;;48.38;29.05;;;2.90;99.90;;;;;;5034329;28;20072;-87
2023/03/02 02:05:41;;;;;;;53.78;29.33;;;2.90;99.90;;;;;;5033327;28;20126;-88
2023/03/02 02:08:07;;;;;;;53.88;30.00;;;2.90;99.90;;;;;;5033479;28;20029;-88
2023/03/02 02:10:34;;;;;;;51.75;29.98;;;2.90;99.90;;;;;;5032984;28;20045;-88
2023/03/02 02:13:00;;;;;;;54.05;30.83;;;2.90;99.90;;;;;;5033085;28;20029;-88
2023/03/02 02:15:26;;;;;;;53.85;29.65;;;2.90;99.90;;;;;;5033663;28;20103;-87
2023/03/02 02:17:53;;;;;;;53.53;30.63;;;2.80;99.90;;;;;;5033604;28;20116;-88
2023/03/02 02:20:38;;;;;;;54.95;29.73;;;2.90;99.90;;;;;;5033070;28;20033;-87
2023/03/02 02:23:33;;;;;;;53.38;30.30;;;2.90;99.90;;;;;;5033624;28;20075;-87
2023/03/02 02:26:17;;;;;;;53.42;29.75;;;2.90;99.90;;;;;;4996971;28;20136;-88
2023/03/02 02:28:49;;;;;;;50.88;27.73;;;2.90;99.90;;;;;;5033048;28;20033;-88
2023/03/02 02:31:18;;;;;;;53.17;30.50;;;2.80;99.90;;;;;;5033854;28;20025;-88
2023/03/02 02:33:48;;;;;;;53.30;30.02;;;3.20;99.90;;;;;;5032476;28;20028;-88
2023/03/02 02:36:21;;;;;;;47.03;23.55;;;2.80;99.90;;;;;;5033053;28;20384;-88
2023/03/02 02:38:50;;;;;;;53.97;30.90;;;2.90;99.90;;;;;;5033208;28;20095;-88
2023/03/02 02:41:27;;;;;;;56.83;31.10;;;2.90;99.90;;;;;;5032867;28;20068;-88
2023/03/02 02:43:53;;;;;;;59.75;32.22;;;2.80;99.90;;;;;;5032542;28;20108;-87
2023/03/02 02:46:19;;;;;;;59.92;31.65;;;2.90;99.90;;;;;;5032718;28;20029;-88
2023/03/02 02:48:45;;;;;;;54.58;30.65;;;2.80;99.90;;;;;;5032874;28;20400;-88
2023/03/02 02:51:19;;;;;;;60.47;32.33;;;2.80;99.90;;;;;;5033074;28;20117;-88
2023/03/02 02:54:02;;;;;;;55.60;30.38;;;2.90;99.90;;;;;;5032373;28;20096;-88
2023/03/02 02:56:34;;;;;;;57.13;30.90;;;2.80;99.90;;;;;;5032627;28;20147;-89
2023/03/02 02:59:09;;;;;;;60.55;32.13;;;2.90;99.90;;;;;;5033144;28;20402;-88
2023/03/02 03:01:34;;;;;;;56.90;30.27;;;2.90;99.90;;;;;;5032824;28;20037;-88
2023/03/02 03:04:03;;;;;;;54.33;29.92;;;2.90;99.90;;;;;;5032367;28;20018;-88
2023/03/02 03:06:37;;;;;;;55.03;30.42;;;2.80;99.90;;;;;;5032177;28;20030;-88
2023/03/02 03:09:04;;;;;;;56.63;30.63;;;2.80;99.90;;;;;;5032430;28;20044;-88
2023/03/02 03:11:34;;;;;;;58.83;30.05;;;2.80;99.90;;;;;;5032925;28;20026;-88
2023/03/02 03:14:10;;;;;;;55.42;29.67;;;2.80;99.90;;;;;;5032904;28;20045;-88
2023/03/02 03:16:38;;;;;;;51.92;28.20;;;2.80;99.90;;;;;;5032218;28;20059;-88
2023/03/02 03:19:22;;;;;;;53.53;29.95;;;2.80;99.90;;;;;;5032757;28;20063;-88
2023/03/02 03:21:50;;;;;;;54.53;29.85;;;2.80;99.90;;;;;;5032185;28;20388;-88
2023/03/02 03:24:17;;;;;;;54.15;30.08;;;2.70;99.90;;;;;;5032620;28;20036;-88
2023/03/02 03:26:43;;;;;;;49.92;27.92;;;2.80;99.90;;;;;;5032725;28;20037;-88
2023/03/02 03:29:09;;;;;;;52.65;29.33;;;2.70;99.90;;;;;;5032485;28;20033;-88
2023/03/02 03:31:34;;;;;;;50.00;29.05;;;2.80;99.90;;;;;;5032605;28;20025;-87
2023/03/02 03:34:00;;;;;;;47.95;27.02;;;2.80;99.90;;;;;;5032253;28;20033;-87
2023/03/02 03:36:30;;;;;;;55.17;28.98;;;2.80;99.90;;;;;;5032233;28;20040;-87
2023/03/02 03:38:56;;;;;;;55.38;27.52;;;2.80;99.90;;;;;;5032002;28;20025;-88
2023/03/02 03:41:23;;;;;;;50.78;29.02;;;2.80;99.90;;;;;;5032313;28;20176;-87
2023/03/02 03:43:49;;;;;;;49.00;27.00;;;2.80;99.90;;;;;;5031744;28;20439;-87
2023/03/02 03:46:16;;;;;;;51.42;29.05;;;2.80;99.90;;;;;;5031876;28;20025;-88
2023/03/02 03:48:41;;;;;;;48.28;28.60;;;2.80;99.90;;;;;;5032169;28;20041;-88
2023/03/02 03:51:08;;;;;;;50.70;28.40;;;2.80;99.90;;;;;;5031945;28;20025;-88
2023/03/02 03:53:33;;;;;;;55.15;28.30;;;2.80;99.90;;;;;;5031843;28;20021;-87
2023/03/02 03:55:59;;;;;;;49.88;28.30;;;2.70;99.90;;;;;;5032064;28;20032;-87
2023/03/02 03:58:26;;;;;;;53.47;29.40;;;2.70;99.90;;;;;;5031785;28;20025;-87
2023/03/02 04:00:52;;;;;;;49.72;27.25;;;2.70;99.90;;;;;;5031972;28;20025;-89
2023/03/02 04:03:18;;;;;;;50.10;28.73;;;2.70;99.90;;;;;;5032249;28;20461;-88
2023/03/02 04:05:44;;;;;;;48.25;26.75;;;2.60;99.90;;;;;;5031456;28;20048;-87
2023/03/02 04:08:10;;;;;;;53.58;29.17;;;2.70;99.90;;;;;;5032220;28;20037;-87
2023/03/02 04:10:36;;;;;;;50.53;27.33;;;2.70;99.90;;;;;;5030948;28;20029;-88
2023/03/02 04:13:02;;;;;;;54.60;28.77;;;2.70;99.90;;;;;;5031612;28;20029;-88
2023/03/02 04:15:28;;;;;;;45.92;27.13;;;2.60;99.90;;;;;;5032309;28;20017;-88
2023/03/02 04:17:53;;;;;;;48.38;26.48;;;2.60;99.90;;;;;;5031147;28;20037;-88
2023/03/02 04:20:21;;;;;;;48.60;26.25;;;2.60;99.90;;;;;;5031533;28;20032;-88
2023/03/02 04:22:50;;;;;;;47.50;27.27;;;2.70;99.90;;;;;;5032159;28;20167;-87
2023/03/02 04:25:20;;;;;;;47.15;26.95;;;2.70;99.90;;;;;;5030254;28;20034;-88
2023/03/02 04:27:48;;;;;;;46.95;26.60;;;2.60;99.90;;;;;;5031901;28;20497;-88
2023/03/02 04:30:18;;;;;;;46.33;25.95;;;2.60;99.90;;;;;;5031752;28;20096;-88
2023/03/02 04:32:43;;;;;;;48.28;25.92;;;2.70;99.90;;;;;;5031877;28;20095;-88
2023/03/02 04:35:11;;;;;;;44.25;26.17;;;2.70;99.90;;;;;;5034104;28;20056;-88
2023/03/02 04:37:37;;;;;;;43.85;26.20;;;2.70;99.90;;;;;;5035293;28;20030;-87
2023/03/02 04:40:03;;;;;;;46.83;25.52;;;2.70;99.90;;;;;;5034765;28;20030;-88
2023/03/02 04:42:28;;;;;;;43.92;24.55;;;2.60;99.90;;;;;;5035153;28;20038;-88
2023/03/02 04:44:54;;;;;;;44.88;25.55;;;2.70;99.90;;;;;;5034688;28;20025;-88
2023/03/02 04:47:19;;;;;;;47.30;24.77;;;2.70;99.90;;;;;;5035352;28;20040;-87
2023/03/02 04:49:45;;;;;;;47.38;25.55;;;2.60;99.90;;;;;;5034913;28;20108;-88
2023/03/02 04:52:10;;;;;;;44.65;25.40;;;2.70;99.90;;;;;;5035389;28;20033;-88
2023/03/02 04:54:36;;;;;;;47.55;25.83;;;2.70;99.90;;;;;;5034740;28;20440;-88
2023/03/02 04:57:02;;;;;;;44.30;24.80;;;2.70;99.90;;;;;;5034966;28;20030;-88
2023/03/02 04:59:28;;;;;;;43.08;24.92;;;2.70;99.90;;;;;;5034841;28;20027;-88
2023/03/02 05:01:56;;;;;;;45.40;26.20;;;2.60;99.90;;;;;;5034528;28;20037;-88
2023/03/02 05:04:22;;;;;;;43.38;23.83;;;2.70;99.90;;;;;;5035066;28;20029;-88
2023/03/02 05:06:47;;;;;;;44.70;25.35;;;2.70;99.90;;;;;;5033962;28;20388;-88
2023/03/02 05:09:13;;;;;;;44.72;24.70;;;2.60;99.90;;;;;;5034238;28;20440;-88
2023/03/02 05:11:39;;;;;;;42.45;24.10;;;2.60;99.90;;;;;;5034578;28;20022;-88
2023/03/02 05:14:07;;;;;;;43.10;24.17;;;2.60;99.90;;;;;;5034019;28;20025;-88
2023/03/02 05:16:34;;;;;;;45.85;25.45;;;2.60;99.90;;;;;;5034556;28;20033;-87
2023/03/02 05:19:02;;;;;;;43.97;24.20;;;2.50;99.90;;;;;;5034384;28;20068;-88
2023/03/02 05:21:29;;;;;;;46.30;24.30;;;2.50;99.90;;;;;;5033634;28;20071;-88
2023/03/02 05:23:55;;;;;;;42.78;24.13;;;2.50;99.90;;;;;;5034133;28;20465;-88
2023/03/02 05:26:20;;;;;;;40.80;23.55;;;2.40;99.90;;;;;;5034623;28;20041;-88
2023/03/02 05:28:46;;;;;;;46.42;25.40;;;2.40;99.90;;;;;;5034112;28;20496;-88
2023/03/02 05:31:18;;;;;;;45.45;24.80;;;2.40;99.90;;;;;;5034166;28;20032;-88
2023/03/02 05:33:44;;;;;;;42.88;23.98;;;2.30;99.90;;;;;;5034541;28;20107;-88
2023/03/02 05:36:09;;;;;;;44.03;25.08;;;2.30;99.90;;;;;;5033101;28;20056;-87
2023/03/02 05:38:35;;;;;;;41.75;24.08;;;2.30;99.90;;;;;;5034291;28;20507;-88
2023/03/02 05:41:01;;;;;;;42.47;23.77;;;2.40;99.90;;;;;;5033795;28;20125;-87
2023/03/02 05:43:27;;;;;;;40.17;23.75;;;2.40;99.90;;;;;;5033566;28;20160;-88
2023/03/02 05:45:54;;;;;;;43.08;23.20;;;2.40;99.90;;;;;;5033766;28;20028;-87
2023/03/02 05:48:20;;;;;;;46.50;24.23;;;2.40;99.90;;;;;;5031942;28;20036;-88
2023/03/02 05:50:46;;;;;;;42.67;22.83;;;2.40;99.90;;;;;;5031785;28;20101;-88
2023/03/02 05:53:11;;;;;;;41.83;23.40;;;2.40;99.90;;;;;;5033299;28;20032;-87
2023/03/02 05:55:37;;;;;;;38.88;22.30;;;2.40;99.90;;;;;;5033552;28;20104;-88
2023/03/02 05:58:05;;;;;;;39.40;22.42;;;2.50;99.90;;;;;;5031360;28;20029;-87
2023/03/02 06:00:30;;;;;;;41.35;23.75;;;2.40;99.90;;;;;;5015371;28;20110;-88
2023/03/02 06:02:56;;;;;;;40.78;23.35;;;2.50;99.90;;;;;;5019239;28;20108;-88
2023/03/02 06:05:23;;;;;;;44.17;23.73;;;2.40;99.90;;;;;;5027727;28;20056;-88
2023/03/02 06:07:49;;;;;;;47.22;24.63;;;2.40;99.90;;;;;;5032993;28;20124;-87
2023/03/02 06:10:14;;;;;;;41.58;24.27;;;2.40;99.90;;;;;;5031210;28;20121;-88
2023/03/02 06:12:40;;;;;;;42.17;23.15;;;2.30;99.90;;;;;;5032760;28;20042;-88
2023/03/02 06:15:07;;;;;;;45.80;23.98;;;2.30;99.90;;;;;;5033761;28;20030;-89
2023/03/02 06:17:32;;;;;;;42.67;23.85;;;2.30;99.90;;;;;;5033147;28;20033;-87
2023/03/02 06:19:58;;;;;;;45.50;23.85;;;2.20;99.90;;;;;;5032119;28;20031;-88
2023/03/02 06:22:24;;;;;;;39.05;22.35;;;2.20;99.90;;;;;;5033477;28;20044;-87
2023/03/02 06:24:49;;;;;;;45.85;23.80;;;2.70;99.90;;;;;;5032486;28;20029;-88
2023/03/02 06:27:15;;;;;;;49.00;25.60;;;2.20;99.90;;;;;;5032030;28;20087;-88
2023/03/02 06:29:41;;;;;;;38.65;22.63;;;2.20;99.90;;;;;;5032782;28;20112;-88
2023/03/02 06:32:07;;;;;;;39.97;22.60;;;2.10;99.90;;;;;;5018061;28;20033;-88
2023/03/02 06:34:32;;;;;;;42.35;24.90;;;2.10;99.90;;;;;;5013154;28;20036;-89
2023/03/02 06:36:58;;;;;;;44.35;24.15;;;2.10;99.90;;;;;;5011113;28;20475;-88
2023/03/02 06:39:24;;;;;;;40.53;22.88;;;2.20;99.90;;;;;;5011727;28;20033;-87
2023/03/02 06:41:49;;;;;;;43.38;24.30;;;2.10;99.90;;;;;;5012231;28;20045;-89
2023/03/02 06:44:16;;;;;;;46.92;23.48;;;2.80;99.90;;;;;;5013181;28;20028;-88
2023/03/02 06:46:43;;;;;;;46.50;24.35;;;2.20;99.90;;;;;;5012034;28;20042;-88
2023/03/02 06:49:10;;;;;;;42.58;23.98;;;2.20;99.90;;;;;;5012847;28;20022;-88
2023/03/02 06:51:37;;;;;;;36.83;23.30;;;2.20;99.90;;;;;;5012965;28;20108;-87
2023/03/02 06:54:05;;;;;;;44.50;23.42;;;2.20;99.90;;;;;;5010821;28;20034;-88
2023/03/02 06:56:30;;;;;;;49.47;24.65;;;2.20;99.90;;;;;;5010687;28;20037;-87
2023/03/02 06:58:56;;;;;;;42.30;22.52;;;2.20;99.90;;;;;;5012794;28;20109;-87
2023/03/02 07:01:21;;;;;;;44.17;23.98;;;2.20;99.90;;;;;;5012154;28;20030;-88
2023/03/02 07:03:47;;;;;;;44.10;24.33;;;2.30;99.90;;;;;;5012922;28;20029;-87
2023/03/02 07:06:12;;;;;;;45.88;23.90;;;2.30;99.90;;;;;;5017432;28;20488;-87
2023/03/02 07:08:39;;;;;;;38.30;22.50;;;2.30;99.90;;;;;;5021865;28;20084;-87
2023/03/02 07:11:07;;;;;;;46.20;24.50;;;2.30;99.90;;;;;;5018265;28;20465;-87
2023/03/02 07:13:33;;;;;;;47.00;24.95;;;2.30;99.90;;;;;;5021922;28;20029;-88
2023/03/02 07:15:58;;;;;;;47.30;25.58;;;2.20;99.90;;;;;;5021528;28;20026;-88
2023/03/02 07:18:24;;;;;;;47.63;24.55;;;2.30;99.90;;;;;;5023144;28;20473;-87
2023/03/02 07:20:49;;;;;;;45.90;24.23;;;2.30;99.90;;;;;;5019856;28;20481;-88
2023/03/02 07:23:15;;;;;;;48.85;25.73;;;2.30;99.90;;;;;;5023065;28;20116;-87
2023/03/02 07:25:41;;;;;;;43.00;23.95;;;2.40;99.90;;;;;;5022155;28;20067;-88
2023/03/02 07:28:06;;;;;;;45.38;25.10;;;2.40;99.90;;;;;;5021070;28;20033;-87
2023/03/02 07:30:32;;;;;;;47.17;24.40;;;2.90;99.90;;;;;;5021509;28;20018;-87
2023/03/02 07:32:57;;;;;;;45.63;25.05;;;2.50;99.90;;;;;;5024014;28;20488;-87
2023/03/02 07:35:23;;;;;;;49.80;25.20;;;2.50;99.90;;;;;;5026627;28;20029;-87
2023/03/02 07:37:51;;;;;;;43.08;24.65;;;2.50;99.90;;;;;;5032399;28;20103;-88
2023/03/02 07:40:16;;;;;;;44.55;22.98;;;2.50;99.90;;;;;;5032358;28;20041;-87
2023/03/02 07:42:42;;;;;;;49.20;25.73;;;2.50;99.90;;;;;;5031808;28;20091;-88
2023/03/02 07:45:09;;;;;;;44.60;24.60;;;2.60;99.90;;;;;;5032099;28;20032;-87
2023/03/02 07:47:34;;;;;;;48.38;25.40;;;2.60;99.90;;;;;;5032408;28;20044;-89
2023/03/02 07:50:00;;;;;;;51.00;26.38;;;2.60;99.90;;;;;;5023076;28;20022;-87
2023/03/02 07:52:28;;;;;;;48.13;25.60;;;2.70;99.90;;;;;;5022622;28;20121;-87
2023/03/02 07:54:54;;;;;;;48.10;27.20;;;2.60;99.90;;;;;;5018959;28;20029;-87
2023/03/02 07:57:19;;;;;;;44.85;25.05;;;2.60;99.90;;;;;;5011687;28;20362;-86
2023/03/02 07:59:45;;;;;;;51.33;25.08;;;3.30;99.90;;;;;;5012278;28;20425;-87
2023/03/02 08:02:15;;;;;;;47.88;25.13;;;2.70;99.90;;;;;;5013385;28;20034;-88
2023/03/02 08:04:41;;;;;;;44.20;24.33;;;2.70;99.90;;;;;;5013529;28;20022;-87
2023/03/02 08:07:07;;;;;;;42.83;24.75;;;2.70;99.90;;;;;;5010463;28;20064;-87
2023/03/02 08:09:32;;;;;;;44.45;23.70;;;2.70;99.90;;;;;;5015045;28;20465;-87
2023/03/02 08:11:58;;;;;;;50.08;25.90;;;2.70;99.90;;;;;;5022199;28;20519;-87
2023/03/02 08:14:24;;;;;;;40.97;22.50;;;2.80;99.90;;;;;;5026673;28;20661;-85
2023/03/02 08:16:51;;;;;;;49.05;25.02;;;2.80;99.90;;;;;;5024230;28;20018;-87
2023/03/02 08:19:17;;;;;;;46.22;23.50;;;2.80;99.90;;;;;;5022716;28;20021;-87
2023/03/02 08:21:45;;;;;;;47.70;24.02;;;2.90;99.90;;;;;;5015494;28;20033;-85
2023/03/02 08:24:17;;;;;;;45.70;23.45;;;3.40;99.90;;;;;;5015449;28;20033;-85
2023/03/02 08:26:49;;;;;;;46.63;23.95;;;3.50;99.90;;;;;;5015389;28;20389;-87
2023/03/02 08:29:17;;;;;;;44.45;23.63;;;2.60;99.90;;;;;;5017159;28;20018;-86
2023/03/02 08:31:46;;;;;;;46.25;23.92;;;2.90;99.90;;;;;;5021200;28;20026;-86
2023/03/02 08:34:17;;;;;;;41.60;22.73;;;3.00;99.90;;;;;;5013529;28;20029;-85
2023/03/02 08:36:49;;;;;;;45.10;24.20;;;3.70;99.90;;;;;;5014080;28;20030;-87
2023/03/02 08:41:49;;;;;;;41.92;23.13;;;3.10;99.90;;;;;;5038840;22;20061;-87
2023/03/02 08:44:16;;;;;;;45.50;23.55;;;3.60;99.90;;;;;;5033877;28;20018;-87
2023/03/02 08:46:42;;;;;;;45.53;22.42;;;3.00;99.90;;;;;;5033343;28;20512;-87
2023/03/02 08:52:21;;;;;;;40.28;22.02;;;3.30;99.90;;;;;;4993434;28;20029;-87
2023/03/02 08:54:49;;;;;;;41.90;22.58;;;3.80;99.90;;;;;;5034379;28;20053;-86
2023/03/02 08:57:15;;;;;;;43.38;22.60;;;3.70;99.90;;;;;;5034708;28;20045;-85
2023/03/02 08:59:41;;;;;;;42.15;22.25;;;3.20;99.90;;;;;;5034258;28;20048;-85
2023/03/02 09:02:15;;;;;;;39.25;22.08;;;3.30;99.90;;;;;;5034538;28;20423;-87
2023/03/02 09:04:47;;;;;;;42.33;22.15;;;3.80;99.90;;;;;;5031534;28;20038;-87
2023/03/02 09:07:18;;;;;;;44.70;21.45;;;4.10;99.90;;;;;;5032625;28;20037;-87
2023/03/02 09:09:47;;;;;;;39.30;20.52;;;3.40;99.90;;;;;;5025209;28;20392;-88
2023/03/02 09:12:15;;;;;;;36.75;20.05;;;3.40;99.90;;;;;;5027318;28;20049;-88
2023/03/02 09:15:16;;;;;;;37.55;20.42;;;3.40;99.90;;;;;;5029543;28;20060;-88
2023/03/02 09:17:57;;;;;;;;;;;3.50;99.90;;;;;;5034781;28;20021;-86
2023/03/02 09:20:29;;;;;;;33.83;18.30;;;3.60;99.90;;;;;;5031654;28;19995;-87
2023/03/02 09:22:58;;;;;;;35.60;18.90;;;3.60;99.90;;;;;;5031911;28;20530;-86
2023/03/02 09:25:25;;;;;;;35.88;19.27;;;4.30;99.90;;;;;;5032263;28;20160;-86
2023/03/02 09:27:58;;;;;;;35.25;18.95;;;3.70;99.90;;;;;;5032175;28;20124;-88
2023/03/02 09:30:27;;;;;;;32.50;18.00;;;3.40;99.90;;;;;;5032412;28;20025;-87
2023/03/02 09:32:56;;;;;;;35.38;18.13;;;3.50;99.90;;;;;;5032706;28;20025;-87
2023/03/02 09:35:30;;;;;;;33.03;18.13;;;4.40;99.90;;;;;;5033734;28;20465;-87
2023/03/02 09:37:58;;;;;;;30.75;17.80;;;4.40;99.90;;;;;;5033578;28;20536;-87
2023/03/02 09:40:27;;;;;;;31.50;17.02;;;4.50;99.90;;;;;;5032952;28;20041;-86
2023/03/02 09:43:37;;;;;;;29.23;16.20;;;4.50;99.90;;;;;;5038670;23;20060;-87
2023/03/02 09:46:36;;;;;;;36.00;16.70;;;4.10;99.90;;;;;;4992886;28;20057;-87
2023/03/02 09:49:39;;;;;;;29.02;16.27;;;4.20;99.90;;;;;;5063670;22;20072;-87
2023/03/02 09:52:47;;;;;;;28.48;15.75;;;4.20;99.90;;;;;;5072263;28;20016;-87
2023/03/02 09:55:52;;;;;;;38.97;16.48;;;4.40;99.90;;;;;;5071511;28;20048;-87
2023/03/02 09:58:24;;;;;;;25.95;15.25;;;4.40;99.90;;;;;;5073781;28;20029;-87
2023/03/02 10:03:56;;;;;;;29.02;15.40;;;4.00;99.90;;;;;;5072553;28;20054;-87
2023/03/02 10:06:25;;;;;;;28.65;15.60;;;4.60;99.90;;;;;;5073878;28;20025;-87
2023/03/02 10:08:51;;;;;;;33.28;15.43;;;5.00;99.90;;;;;;5073644;28;20039;-87
2023/03/02 10:11:54;;;;;;;26.75;15.57;;;5.80;99.90;;;;;;5073126;28;20025;-87
2023/03/02 10:14:29;;;;;;;25.83;14.88;;;4.70;99.90;;;;;;5073588;28;20035;-87
2023/03/02 10:17:29;;;;;;;25.58;14.15;;;5.20;99.90;;;;;;5073341;28;20032;-87
2023/03/02 10:23:35;;;;;;;27.02;14.88;;;5.30;99.90;;;;;;5073708;28;20062;-87
2023/03/02 10:26:37;;;;;;;26.38;14.35;;;4.90;99.90;;;;;;5073436;28;20031;-87
2023/03/02 10:29:31;;;;;;;30.05;15.23;;;5.00;99.90;;;;;;5054612;28;20041;-87
2023/03/02 10:32:03;;;;;;;28.60;14.85;;;4.70;99.90;;;;;;5071330;28;20477;-87
2023/03/02 10:34:29;;;;;;;25.48;13.30;;;5.70;99.90;;;;;;5072808;28;20021;-87
2023/03/02 10:36:57;;;;;;;27.77;14.80;;;5.00;99.90;;;;;;5072020;28;20021;-86
2023/03/02 10:39:31;;;;;;;31.60;14.70;;;5.80;99.90;;;;;;5071579;28;20369;-88
2023/03/02 10:42:07;;;;;;;26.13;13.57;;;5.10;99.90;;;;;;5072569;28;20033;-87
2023/03/02 10:44:39;;;;;;;24.60;14.38;;;5.70;99.90;;;;;;5072657;28;20024;-88
2023/03/02 10:47:07;;;;;;;23.90;15.07;;;5.90;99.90;;;;;;5071636;28;20035;-86
2023/03/02 10:49:38;;;;;;;28.92;14.52;;;5.40;99.90;;;;;;5071889;28;20045;-87
2023/03/02 10:52:11;;;;;;;26.55;12.38;;;5.40;99.90;;;;;;5072102;28;20032;-87
2023/03/02 10:54:36;;;;;;;23.23;12.95;;;5.40;99.90;;;;;;5072481;28;20507;-90
2023/03/02 10:57:18;;;;;;;22.05;13.52;;;5.50;99.90;;;;;;5067638;28;20047;-88
2023/03/02 10:59:46;;;;;;;29.05;13.85;;;5.60;99.90;;;;;;5071674;28;20025;-90
2023/03/02 11:02:22;;;;;;;28.23;14.85;;;5.60;99.90;;;;;;5073629;28;20097;-91
2023/03/02 11:04:56;;;;;;;24.50;13.63;;;5.60;99.90;;;;;;5057768;28;20021;-94
2023/03/02 11:07:55;;;;;;;22.48;13.35;;;5.20;99.90;;;;;;5061576;28;20135;-93
2023/03/02 11:16:23;;;;;;;23.95;12.70;;;5.90;99.90;;;;;;5028037;22;20081;-91
2023/03/02 11:18:51;;;;;;;23.33;13.52;;;5.90;99.90;;;;;;5013865;28;20030;-90
2023/03/02 11:21:30;;;;;;;24.95;14.73;;;6.20;99.90;;;;;;5012942;28;20133;-90
2023/03/02 11:24:01;;;;;;;22.17;12.23;;;6.00;99.90;;;;;;5013172;28;20470;-90
2023/03/02 11:26:51;;;;;;;32.72;13.73;;;6.00;99.90;;;;;;5013413;28;20034;-90
2023/03/02 11:30:23;;;;;;;27.20;14.23;;;6.90;99.90;;;;;;5013005;28;20025;-90
2023/03/02 11:32:55;;;;;;;23.60;11.85;;;6.10;99.90;;;;;;4953039;29;20383;-90
2023/03/02 11:35:29;;;;;;;22.92;12.63;;;6.70;99.90;;;;;;4952573;29;20387;-91
2023/03/02 11:38:04;;;;;;;27.30;12.60;;;6.20;99.90;;;;;;4952811;29;20091;-91
2023/03/02 11:40:31;;;;;;;20.55;12.60;;;7.60;99.90;;;;;;4956004;28;20039;-90
2023/03/02 11:42:59;;;;;;;23.48;13.98;;;6.30;99.90;;;;;;4951971;28;20034;-91
2023/03/02 11:45:58;;;;;;;22.33;11.82;;;7.00;99.90;;;;;;4968488;28;20038;-87
2023/03/02 11:51:24;;;;;;;20.13;12.00;;;6.60;99.90;;;;;;5047343;28;20061;-90
2023/03/02 11:54:01;;;;;;;20.75;11.60;;;6.70;99.90;;;;;;5048443;28;20059;-90
2023/03/02 11:56:30;;;;;;;17.65;11.10;;;7.40;99.90;;;;;;5039275;28;20037;-91
2023/03/02 11:59:25;;;;;;;20.50;12.35;;;6.60;99.90;;;;;;5036420;28;20037;-90
2023/03/02 12:01:53;;;;;;;17.35;10.07;;;6.60;99.90;;;;;;5008705;28;20116;-90
2023/03/02 12:04:56;;;;;;;17.15;10.27;;;7.40;99.90;;;;;;5036367;28;20072;-90
2023/03/02 12:07:26;;;;;;;17.50;10.70;;;7.00;99.90;;;;;;5036491;28;20033;-89
2023/03/02 12:13:26;;;;;;;20.65;12.25;;;7.10;99.90;;;;;;5036897;28;20170;-90
2023/03/02 12:15:56;;;;;;;21.52;13.75;;;6.90;99.90;;;;;;5035776;28;20049;-90
2023/03/02 12:18:22;;;;;;;23.55;13.50;;;7.80;99.90;;;;;;5036439;28;20044;-90
2023/03/02 12:21:23;;;;;;;22.85;13.20;;;7.10;99.90;;;;;;5036116;28;20528;-90
2023/03/02 12:23:55;;;;;;;21.30;13.07;;;7.30;99.90;;;;;;4967178;28;20048;-90
2023/03/02 12:29:25;;;;;;;31.27;16.55;;;7.20;99.90;;;;;;5036269;28;20088;-90
2023/03/02 12:31:55;;;;;;;33.30;17.25;;;7.70;99.90;;;;;;5034204;28;20156;-89
2023/03/02 12:34:32;;;;;;;27.58;16.45;;;7.30;99.90;;;;;;5036170;28;20401;-90
2023/03/02 12:37:32;;;;;;;25.35;15.57;;;7.30;99.90;;;;;;5035599;28;20044;-90
2023/03/02 12:40:01;;;;;;;26.85;16.38;;;7.30;99.90;;;;;;5035183;28;20018;-90
2023/03/02 12:43:04;;;;;;;24.58;15.32;;;7.70;99.90;;;;;;5036283;28;20044;-91
2023/03/02 12:49:28;;;;;;;22.75;14.63;;;7.50;99.90;;;;;;5035909;28;20051;-90
2023/03/02 12:56:01;;;;;;;29.02;16.70;;;7.50;99.90;;;;;;4974230;28;20041;-90
2023/03/02 12:58:32;;;;;;;24.75;14.57;;;8.20;99.90;;;;;;4973998;28;20042;-91
2023/03/02 13:01:12;;;;;;;;;;;;;;;;;;;;;
2023/03/02 13:03:56;;;;;;;24.60;14.05;;;7.70;99.90;;;;;;4998696;28;20111;-91
2023/03/02 13:08:57;;;;;;;25.25;15.13;;;7.90;99.90;;;;;;5093323;22;20144;-90
2023/03/02 13:11:53;;;;;;;25.00;15.45;;;7.90;99.90;;;;;;5068464;22;20578;-89
2023/03/02 13:14:27;;;;;;;25.50;14.77;;;8.00;99.90;;;;;;5040229;22;20049;-88
2023/03/02 13:17:20;;;;;;;22.90;14.05;;;8.30;99.90;;;;;;5032559;28;20017;-91
2023/03/02 13:19:50;;;;;;;27.23;14.95;;;8.20;99.90;;;;;;5017887;28;20044;-91
2023/03/02 13:26:16;;;;;;;23.77;15.23;;;8.20;99.90;;;;;;5154475;22;20060;-92
2023/03/02 13:38:24;;;;;;;25.92;15.52;;;8.00;99.90;;;;;;4973696;28;20125;-91
2023/03/02 13:41:25;;;;;;;26.38;15.55;;;8.30;99.90;;;;;;4956724;28;20130;-90
2023/03/02 13:46:38;;;;;;;25.23;14.60;;;8.40;99.90;;;;;;5541263;22;20511;-90
2023/03/02 13:49:10;;;;;;;21.85;14.60;;;8.40;99.90;;;;;;5060683;23;20168;-90